createdAt,value
2019-03-22T00:01:41.730Z,6.50
2019-03-22T00:04:12.677Z,6.40
2019-03-22T00:06:43.594Z,6.50
2019-03-22T00:09:14.475Z,6.60
2019-03-22T00:11:45.402Z,6.60
2019-03-22T00:14:16.309Z,6.70
2019-03-22T00:16:47.305Z,6.70
2019-03-22T00:19:18.189Z,6.70
2019-03-22T00:21:49.097Z,6.80
2019-03-22T00:24:20.013Z,6.80
2019-03-22T00:26:51.006Z,6.90
2019-03-22T00:29:21.890Z,6.90
2019-03-22T00:31:52.828Z,7.00
2019-03-22T00:34:23.722Z,7.00
2019-03-22T00:36:54.654Z,7.10
2019-03-22T00:39:25.535Z,7.10
2019-03-22T00:41:56.453Z,7.20
2019-03-22T00:44:27.338Z,7.20
2019-03-22T00:46:58.250Z,7.30
2019-03-22T00:49:29.125Z,7.30
2019-03-22T00:52:00.027Z,7.30
2019-03-22T00:54:30.905Z,7.40
2019-03-22T00:57:01.930Z,7.40
2019-03-22T00:59:32.798Z,7.40
2019-03-22T01:02:04.053Z,7.40
2019-03-22T01:04:34.956Z,7.50
2019-03-22T01:07:06.277Z,7.50
2019-03-22T01:09:37.153Z,7.50
2019-03-22T01:12:08.061Z,7.50
2019-03-22T01:14:39.150Z,7.50
2019-03-22T01:17:10.058Z,7.50
2019-03-22T01:19:40.933Z,7.60
2019-03-22T01:22:11.928Z,7.60
2019-03-22T01:24:42.853Z,7.70
2019-03-22T01:27:13.858Z,7.70
2019-03-22T01:29:45.805Z,7.70
2019-03-22T01:32:16.815Z,7.70
2019-03-22T01:34:47.685Z,7.70
2019-03-22T01:37:18.591Z,7.80
2019-03-22T01:39:49.803Z,7.80
2019-03-22T01:42:20.806Z,7.80
2019-03-22T01:44:51.682Z,7.90
2019-03-22T01:47:22.629Z,7.90
2019-03-22T01:49:53.525Z,7.90
2019-03-22T01:52:24.542Z,7.90
2019-03-22T01:54:55.422Z,8.00
2019-03-22T01:57:26.337Z,8.00
2019-03-22T01:59:57.221Z,8.00
2019-03-22T02:02:28.149Z,8.00
2019-03-22T02:04:59.041Z,8.10
2019-03-22T02:07:29.962Z,8.10
2019-03-22T02:10:00.833Z,8.10
2019-03-22T02:12:31.734Z,8.10
2019-03-22T02:15:02.645Z,8.20
2019-03-22T02:17:33.850Z,8.20
2019-03-22T02:20:05.523Z,8.20
2019-03-22T02:22:36.441Z,8.30
2019-03-22T02:25:09.246Z,8.30
2019-03-22T02:27:40.175Z,8.30
2019-03-22T02:30:12.866Z,8.30
2019-03-22T02:32:43.969Z,8.30
2019-03-22T02:35:27.451Z,8.30
2019-03-22T02:37:47.581Z,8.40
2019-03-22T02:40:18.536Z,8.40
2019-03-22T02:42:50.545Z,8.40
2019-03-22T02:45:21.456Z,8.40
2019-03-22T02:47:52.393Z,8.40
2019-03-22T02:50:23.261Z,8.40
2019-03-22T02:52:54.195Z,8.50
2019-03-22T02:55:25.064Z,8.50
2019-03-22T02:57:56.214Z,8.50
2019-03-22T03:00:27.082Z,8.60
2019-03-22T03:02:58.088Z,8.60
2019-03-22T03:05:28.959Z,8.60
2019-03-22T03:07:59.874Z,8.60
2019-03-22T03:10:30.829Z,8.60
2019-03-22T03:13:01.824Z,8.60
2019-03-22T03:15:32.697Z,8.70
2019-03-22T03:18:03.702Z,8.70
2019-03-22T03:20:34.575Z,8.70
2019-03-22T03:23:05.534Z,8.70
2019-03-22T03:25:36.722Z,8.70
2019-03-22T03:28:07.641Z,8.80
2019-03-22T03:30:38.525Z,8.80
2019-03-22T03:33:09.461Z,8.80
2019-03-22T03:35:40.329Z,8.80
2019-03-22T03:38:11.238Z,8.80
2019-03-22T03:40:42.214Z,8.80
2019-03-22T03:43:13.134Z,8.80
2019-03-22T03:45:44.014Z,8.90
2019-03-22T03:48:14.934Z,8.90
2019-03-22T03:50:45.818Z,8.90
2019-03-22T03:53:16.751Z,8.90
2019-03-22T03:55:47.669Z,8.90
2019-03-22T03:58:18.699Z,8.90
2019-03-22T04:00:49.570Z,8.90
2019-03-22T04:03:20.511Z,9.00
2019-03-22T04:05:51.392Z,9.00
2019-03-22T04:08:22.313Z,9.00
2019-03-22T04:10:53.193Z,9.00
2019-03-22T04:13:25.284Z,9.00
2019-03-22T04:15:56.171Z,9.00
2019-03-22T04:18:27.165Z,9.10
2019-03-22T04:20:58.049Z,9.00
2019-03-22T04:23:29.058Z,9.10
2019-03-22T04:25:59.970Z,9.10
2019-03-22T04:28:30.891Z,9.10
2019-03-22T04:31:01.758Z,9.10
2019-03-22T04:33:32.674Z,9.10
2019-03-22T04:36:03.561Z,9.20
2019-03-22T04:38:34.469Z,9.20
2019-03-22T04:41:05.456Z,9.20
2019-03-22T04:43:36.364Z,9.20
2019-03-22T04:46:08.281Z,9.20
2019-03-22T04:48:39.782Z,9.20
2019-03-22T04:51:11.363Z,9.20
2019-03-22T04:53:47.965Z,9.20
2019-03-22T04:56:21.482Z,9.20
2019-03-22T04:58:53.907Z,9.20
2019-03-22T05:01:26.589Z,9.20
2019-03-22T05:03:59.237Z,9.20
2019-03-22T05:06:31.437Z,9.30
2019-03-22T05:09:04.017Z,9.30
2019-03-22T05:11:35.810Z,9.30
2019-03-22T05:14:07.434Z,9.30
2019-03-22T05:16:41.533Z,9.30
2019-03-22T05:19:14.354Z,9.30
2019-03-22T05:21:47.230Z,9.30
2019-03-22T05:24:19.446Z,9.30
2019-03-22T05:26:51.944Z,9.40
2019-03-22T05:29:30.643Z,9.40
2019-03-22T05:32:12.321Z,9.40
2019-03-22T05:34:43.325Z,9.40
2019-03-22T05:37:14.209Z,9.40
2019-03-22T05:39:45.116Z,9.40
2019-03-22T05:42:15.988Z,9.50
2019-03-22T05:44:46.918Z,9.50
2019-03-22T05:47:18.165Z,9.50
2019-03-22T05:49:49.085Z,9.50
2019-03-22T05:52:19.969Z,9.50
2019-03-22T05:54:50.881Z,9.50
2019-03-22T05:57:22.068Z,9.60
2019-03-22T05:59:53.074Z,9.60
2019-03-22T06:02:23.950Z,9.60
2019-03-22T06:04:54.861Z,9.60
2019-03-22T06:07:25.738Z,9.60
2019-03-22T06:09:56.726Z,9.60
2019-03-22T06:12:27.609Z,9.70
2019-03-22T06:14:58.529Z,9.70
2019-03-22T06:17:29.401Z,9.70
2019-03-22T06:20:01.417Z,9.70
2019-03-22T06:22:32.369Z,9.80
2019-03-22T06:25:03.370Z,9.80
2019-03-22T06:27:35.476Z,9.80
2019-03-22T06:30:07.969Z,9.80
2019-03-22T06:32:38.945Z,9.80
2019-03-22T06:35:09.890Z,9.90
2019-03-22T06:37:40.766Z,9.90
2019-03-22T06:40:11.888Z,9.90
2019-03-22T06:42:42.693Z,10.00
2019-03-22T06:45:13.706Z,9.90
2019-03-22T06:47:44.583Z,10.00
2019-03-22T06:50:15.922Z,10.00
2019-03-22T06:52:46.796Z,10.00
2019-03-22T06:55:17.701Z,10.00
2019-03-22T06:57:48.922Z,10.10
2019-03-22T07:00:19.840Z,10.10
2019-03-22T07:02:50.702Z,10.10
2019-03-22T07:05:21.614Z,10.10
2019-03-22T07:07:52.501Z,10.20
2019-03-22T07:10:24.479Z,10.20
2019-03-22T07:12:55.350Z,10.30
2019-03-22T07:15:26.355Z,10.30
2019-03-22T07:17:57.225Z,10.30
2019-03-22T07:20:28.131Z,10.30
2019-03-22T07:22:59.019Z,10.40
2019-03-22T07:25:30.005Z,10.40
2019-03-22T07:28:00.924Z,10.40
2019-03-22T07:30:31.922Z,10.40
2019-03-22T07:33:02.809Z,10.40
2019-03-22T07:35:34.542Z,10.50
2019-03-22T07:38:05.413Z,10.50
2019-03-22T07:40:36.330Z,10.50
2019-03-22T07:43:07.211Z,10.60
2019-03-22T07:45:38.229Z,10.50
2019-03-22T07:48:09.114Z,10.50
2019-03-22T07:50:40.112Z,10.60
2019-03-22T07:53:11.011Z,10.50
2019-03-22T07:55:41.905Z,10.50
2019-03-22T07:58:12.789Z,10.60
2019-03-22T08:00:43.717Z,10.60
2019-03-22T08:03:14.598Z,10.60
2019-03-22T08:05:50.906Z,10.60
2019-03-22T08:08:18.189Z,10.70
2019-03-22T08:10:49.201Z,10.70
2019-03-22T08:13:20.102Z,10.80
2019-03-22T08:15:51.076Z,10.80
2019-03-22T08:18:22.121Z,10.80
2019-03-22T08:20:53.244Z,10.80
2019-03-22T08:23:24.529Z,10.80
2019-03-22T08:25:55.485Z,10.80
2019-03-22T08:28:26.385Z,10.90
2019-03-22T08:30:57.305Z,10.90
2019-03-22T08:33:28.241Z,10.90
2019-03-22T08:36:00.000Z,10.90
2019-03-22T08:38:30.864Z,10.90
2019-03-22T08:41:02.928Z,11.00
2019-03-22T08:43:33.798Z,10.90
2019-03-22T08:46:04.736Z,10.90
2019-03-22T08:48:35.613Z,10.90
2019-03-22T08:51:06.517Z,10.90
2019-03-22T08:53:37.395Z,10.90
2019-03-22T08:56:08.330Z,10.90
2019-03-22T08:58:39.208Z,11.00
2019-03-22T09:01:10.193Z,11.10
2019-03-22T09:03:41.073Z,11.10
2019-03-22T09:06:11.990Z,11.10
2019-03-22T09:08:42.896Z,11.10
2019-03-22T09:11:13.804Z,11.10
2019-03-22T09:13:44.756Z,11.10
2019-03-22T09:16:15.768Z,11.10
2019-03-22T09:18:46.649Z,11.10
2019-03-22T09:21:17.563Z,11.20
2019-03-22T09:23:48.445Z,11.30
2019-03-22T09:26:20.124Z,11.30
2019-03-22T09:28:51.294Z,11.40
2019-03-22T09:31:22.230Z,11.40
2019-03-22T09:33:53.092Z,11.50
2019-03-22T09:36:25.063Z,11.50
2019-03-22T09:38:55.990Z,11.60
2019-03-22T09:41:26.900Z,11.60
2019-03-22T09:43:57.793Z,11.70
2019-03-22T09:46:28.668Z,11.70
2019-03-22T09:48:59.665Z,11.70
2019-03-22T09:51:30.589Z,11.70
2019-03-22T09:54:01.456Z,11.60
2019-03-22T09:56:32.362Z,11.70
2019-03-22T09:59:03.266Z,11.70
2019-03-22T10:01:34.161Z,11.70
2019-03-22T10:04:05.056Z,11.70
2019-03-22T10:06:35.975Z,11.80
2019-03-22T10:09:08.996Z,11.70
2019-03-22T10:11:39.973Z,11.70
2019-03-22T10:14:10.858Z,11.80
2019-03-22T10:16:41.774Z,11.80
2019-03-22T10:19:12.697Z,11.90
2019-03-22T10:21:43.657Z,11.90
2019-03-22T10:24:14.537Z,12.00
2019-03-22T10:26:45.550Z,12.00
2019-03-22T10:29:16.606Z,12.00
2019-03-22T10:31:47.613Z,12.00
2019-03-22T10:34:18.484Z,11.90
2019-03-22T10:36:49.436Z,12.00
2019-03-22T10:39:20.358Z,12.10
2019-03-22T10:41:51.251Z,12.10
2019-03-22T10:44:23.174Z,12.10
2019-03-22T10:46:54.288Z,12.20
2019-03-22T10:49:25.168Z,12.20
2019-03-22T10:51:58.042Z,12.20
2019-03-22T10:54:28.681Z,12.20
2019-03-22T10:56:59.616Z,12.20
2019-03-22T10:59:30.501Z,12.20
2019-03-22T11:02:03.721Z,12.20
2019-03-22T11:04:34.038Z,12.20
2019-03-22T11:07:05.256Z,12.30
2019-03-22T11:09:36.143Z,12.30
2019-03-22T11:12:12.208Z,12.40
2019-03-22T11:14:39.691Z,12.50
2019-03-22T11:17:10.606Z,12.50
2019-03-22T11:19:41.482Z,12.50
2019-03-22T11:22:12.391Z,12.60
2019-03-22T11:24:43.278Z,12.50
2019-03-22T11:27:14.196Z,12.60
2019-03-22T11:29:45.249Z,12.70
2019-03-22T11:32:16.249Z,12.60
2019-03-22T11:34:47.150Z,12.60
2019-03-22T11:37:18.081Z,12.60
2019-03-22T11:39:48.963Z,12.60
2019-03-22T11:42:19.964Z,12.60
2019-03-22T11:44:50.845Z,12.60
2019-03-22T11:47:21.774Z,12.70
2019-03-22T11:49:52.650Z,12.80
2019-03-22T11:52:23.593Z,12.90
2019-03-22T11:54:54.472Z,12.90
2019-03-22T11:57:25.459Z,13.00
2019-03-22T11:59:56.338Z,13.20
2019-03-22T12:02:27.277Z,13.20
2019-03-22T12:04:58.157Z,13.10
2019-03-22T12:07:29.084Z,13.00
2019-03-22T12:09:59.961Z,13.10
2019-03-22T12:12:30.885Z,13.20
2019-03-22T12:15:01.768Z,13.20
2019-03-22T12:17:32.771Z,13.10
2019-03-22T12:20:04.213Z,13.10
2019-03-22T12:22:35.219Z,13.00
2019-03-22T12:25:08.350Z,13.10
2019-03-22T12:27:39.296Z,13.20
2019-03-22T12:30:12.895Z,13.30
2019-03-22T12:32:43.841Z,13.40
2019-03-22T12:35:16.350Z,13.40
2019-03-22T12:37:47.270Z,13.50
2019-03-22T12:40:20.235Z,13.40
2019-03-22T12:42:51.639Z,13.50
2019-03-22T12:45:25.186Z,13.40
2019-03-22T12:47:56.104Z,13.50
2019-03-22T12:50:27.598Z,13.40
2019-03-22T12:52:58.523Z,13.40
2019-03-22T12:55:29.397Z,13.40
2019-03-22T12:58:00.662Z,13.50
2019-03-22T13:00:31.891Z,13.50
2019-03-22T13:03:02.822Z,13.60
2019-03-22T13:05:33.789Z,13.60
2019-03-22T13:08:04.788Z,13.60
2019-03-22T13:10:36.749Z,13.60
2019-03-22T13:13:07.658Z,13.60
2019-03-22T13:15:40.652Z,13.70
2019-03-22T13:18:12.661Z,13.80
2019-03-22T13:20:43.541Z,13.80
2019-03-22T13:23:14.461Z,13.80
2019-03-22T13:25:45.345Z,13.80
2019-03-22T13:28:16.345Z,13.90
2019-03-22T13:30:47.259Z,14.00
2019-03-22T13:33:18.165Z,14.00
2019-03-22T13:35:49.046Z,14.10
2019-03-22T13:38:19.997Z,14.00
2019-03-22T13:40:50.883Z,13.90
2019-03-22T13:43:21.886Z,13.80
2019-03-22T13:45:52.785Z,13.80
2019-03-22T13:48:24.075Z,13.90
2019-03-22T13:50:54.973Z,13.80
2019-03-22T13:53:26.985Z,13.80
2019-03-22T13:55:57.877Z,13.90
2019-03-22T13:58:29.978Z,13.80
2019-03-22T14:01:00.897Z,13.70
2019-03-22T14:03:33.208Z,13.90
2019-03-22T14:06:04.329Z,13.80
2019-03-22T14:08:35.696Z,13.90
2019-03-22T14:11:06.598Z,14.00
2019-03-22T14:13:39.677Z,14.10
2019-03-22T14:16:10.058Z,14.00
2019-03-22T14:18:41.016Z,14.10
2019-03-22T14:21:11.916Z,14.20
2019-03-22T14:23:42.837Z,14.00
2019-03-22T14:26:13.729Z,14.10
2019-03-22T14:28:44.810Z,14.00
2019-03-22T14:31:15.793Z,13.90
2019-03-22T14:33:46.719Z,14.00
2019-03-22T14:36:17.613Z,14.10
2019-03-22T14:38:49.673Z,14.00
2019-03-22T14:41:20.614Z,13.90
2019-03-22T14:43:51.678Z,13.90
2019-03-22T14:46:22.593Z,13.80
2019-03-22T14:48:53.654Z,13.70
2019-03-22T14:51:24.565Z,13.80
2019-03-22T14:53:55.578Z,13.80
2019-03-22T14:56:26.466Z,13.80
2019-03-22T14:58:57.494Z,13.70
2019-03-22T15:01:28.385Z,13.80
2019-03-22T15:03:59.435Z,13.70
2019-03-22T15:06:30.320Z,13.70
2019-03-22T15:09:01.263Z,13.80
2019-03-22T15:11:33.917Z,13.80
2019-03-22T15:14:10.761Z,13.90
2019-03-22T15:16:54.232Z,13.90
2019-03-22T15:19:39.868Z,13.90
2019-03-22T15:22:29.681Z,13.80
2019-03-22T15:25:19.536Z,13.60
2019-03-22T15:28:03.429Z,13.50
2019-03-22T15:30:50.489Z,13.50
2019-03-22T15:33:40.040Z,13.50
2019-03-22T15:36:47.952Z,13.50
2019-03-22T15:39:37.875Z,13.30
2019-03-22T15:42:08.954Z,13.40
2019-03-22T15:44:39.853Z,13.30
2019-03-22T15:47:10.954Z,13.30
2019-03-22T15:49:41.851Z,13.10
2019-03-22T15:52:13.932Z,13.00
2019-03-22T15:54:44.812Z,12.70
2019-03-22T15:57:15.825Z,12.70
2019-03-22T15:59:46.715Z,12.70
2019-03-22T16:02:17.660Z,12.70
2019-03-22T16:04:48.886Z,12.60
2019-03-22T16:07:19.773Z,12.70
2019-03-22T16:09:50.682Z,12.50
2019-03-22T16:12:21.598Z,12.70
2019-03-22T16:14:52.941Z,12.60
2019-03-22T16:17:23.821Z,12.70
2019-03-22T16:19:54.734Z,12.60
2019-03-22T16:22:25.622Z,12.70
2019-03-22T16:24:56.598Z,12.50
2019-03-22T16:27:27.481Z,12.40
2019-03-22T16:29:58.399Z,12.40
2019-03-22T16:32:29.365Z,12.40
2019-03-22T16:35:00.681Z,12.50
2019-03-22T16:37:31.550Z,12.50
2019-03-22T16:40:04.577Z,12.30
2019-03-22T16:42:35.380Z,12.30
2019-03-22T16:45:07.947Z,12.10
2019-03-22T16:47:38.837Z,12.00
2019-03-22T16:50:21.512Z,12.00
2019-03-22T16:52:52.577Z,11.90
2019-03-22T16:55:24.088Z,11.80
2019-03-22T16:57:55.021Z,11.70
2019-03-22T17:00:25.947Z,11.60
2019-03-22T17:02:56.861Z,11.60
2019-03-22T17:05:27.872Z,11.60
2019-03-22T17:07:58.774Z,11.40
2019-03-22T17:10:29.699Z,11.40
2019-03-22T17:13:00.605Z,11.40
2019-03-22T17:15:31.529Z,11.40
2019-03-22T17:18:02.425Z,11.30
2019-03-22T17:20:33.529Z,11.30
2019-03-22T17:23:04.529Z,11.30
2019-03-22T17:25:35.791Z,11.30
2019-03-22T17:28:06.677Z,11.30
2019-03-22T17:30:38.698Z,11.30
2019-03-22T17:33:09.620Z,11.40
2019-03-22T17:35:40.544Z,11.30
2019-03-22T17:38:11.425Z,11.20
2019-03-22T17:40:42.361Z,11.20
2019-03-22T17:43:13.236Z,11.20
2019-03-22T17:45:44.160Z,11.10
2019-03-22T17:48:15.340Z,11.10
2019-03-22T17:50:46.305Z,11.00
2019-03-22T17:53:17.175Z,10.90
2019-03-22T17:55:48.952Z,10.90
2019-03-22T17:58:19.857Z,10.90
2019-03-22T18:00:51.307Z,10.90
2019-03-22T18:03:22.198Z,10.80
2019-03-22T18:05:53.201Z,10.80
2019-03-22T18:08:24.086Z,10.80
2019-03-22T18:10:55.818Z,10.80
2019-03-22T18:13:26.695Z,10.80
2019-03-22T18:15:57.614Z,10.70
2019-03-22T18:18:28.497Z,10.70
2019-03-22T18:20:59.414Z,10.70
2019-03-22T18:23:35.718Z,10.60
2019-03-22T18:26:02.854Z,10.60
2019-03-22T18:28:33.801Z,10.60
2019-03-22T18:31:04.718Z,10.50
2019-03-22T18:33:35.657Z,10.40
2019-03-22T18:36:06.573Z,10.40
2019-03-22T18:38:37.450Z,10.30
2019-03-22T18:41:08.371Z,10.30
2019-03-22T18:43:39.248Z,10.10
2019-03-22T18:46:10.181Z,10.10
2019-03-22T18:48:41.131Z,10.10
2019-03-22T18:51:12.046Z,10.00
2019-03-22T18:53:42.923Z,9.90
2019-03-22T18:56:13.854Z,9.90
2019-03-22T18:58:44.733Z,9.80
2019-03-22T19:01:15.750Z,9.80
2019-03-22T19:03:46.633Z,9.80
2019-03-22T19:06:17.548Z,9.70
2019-03-22T19:08:48.438Z,9.70
2019-03-22T19:11:20.446Z,9.70
2019-03-22T19:13:51.334Z,9.60
2019-03-22T19:16:22.337Z,9.60
2019-03-22T19:18:53.217Z,9.60
2019-03-22T19:21:24.149Z,9.60
2019-03-22T19:23:55.038Z,9.50
2019-03-22T19:26:25.951Z,9.50
2019-03-22T19:28:57.134Z,9.50
2019-03-22T19:31:28.063Z,9.50
2019-03-22T19:33:59.018Z,9.40
2019-03-22T19:36:30.014Z,9.40
2019-03-22T19:39:00.907Z,9.40
2019-03-22T19:41:32.749Z,9.40
2019-03-22T19:44:04.699Z,9.40
2019-03-22T19:46:35.621Z,9.40
2019-03-22T19:49:06.505Z,9.40
2019-03-22T19:51:37.501Z,9.40
2019-03-22T19:54:08.384Z,9.30
2019-03-22T19:56:39.386Z,9.30
2019-03-22T19:59:10.772Z,9.30
2019-03-22T20:01:42.157Z,9.30
2019-03-22T20:04:13.154Z,9.20
2019-03-22T20:06:44.564Z,9.20
2019-03-22T20:09:15.545Z,9.20
2019-03-22T20:11:46.945Z,9.20
2019-03-22T20:14:18.936Z,9.20
2019-03-22T20:16:49.916Z,9.10
2019-03-22T20:19:21.154Z,9.10
2019-03-22T20:21:52.145Z,9.10
2019-03-22T20:24:23.015Z,9.10
2019-03-22T20:26:54.026Z,9.00
2019-03-22T20:29:24.906Z,9.00
2019-03-22T20:31:55.837Z,8.90
2019-03-22T20:34:26.767Z,8.90
2019-03-22T20:36:58.066Z,8.80
2019-03-22T20:39:28.942Z,8.80
2019-03-22T20:41:59.873Z,8.80
2019-03-22T20:44:34.093Z,8.80
2019-03-22T20:47:03.343Z,8.70
2019-03-22T20:49:34.213Z,8.70
2019-03-22T20:52:05.329Z,8.70
2019-03-22T20:54:36.210Z,8.60
2019-03-22T20:57:07.149Z,8.60
2019-03-22T20:59:38.097Z,8.70
2019-03-22T21:02:09.025Z,8.60
2019-03-22T21:04:39.909Z,8.60
2019-03-22T21:07:11.893Z,8.60
2019-03-22T21:09:42.798Z,8.50
2019-03-22T21:12:14.089Z,8.50
2019-03-22T21:14:44.993Z,8.50
2019-03-22T21:17:16.260Z,8.40
2019-03-22T21:19:47.371Z,8.40
2019-03-22T21:22:18.713Z,8.40
2019-03-22T21:24:49.592Z,8.40
2019-03-22T21:27:20.504Z,8.30
2019-03-22T21:29:51.378Z,8.30
2019-03-22T21:32:22.337Z,8.20
2019-03-22T21:34:53.357Z,8.20
2019-03-22T21:37:24.274Z,8.20
2019-03-22T21:39:55.149Z,8.20
2019-03-22T21:42:26.154Z,8.10
2019-03-22T21:44:57.041Z,8.00
2019-03-22T21:47:28.041Z,8.00
2019-03-22T21:49:58.918Z,7.90
2019-03-22T21:52:29.842Z,7.90
2019-03-22T21:55:00.729Z,7.80
2019-03-22T21:57:31.628Z,7.80
2019-03-22T22:00:02.505Z,7.80
2019-03-22T22:02:33.487Z,7.80
2019-03-22T22:05:04.491Z,7.80
2019-03-22T22:07:35.423Z,7.70
2019-03-22T22:10:06.661Z,7.70
2019-03-22T22:12:38.025Z,7.70
2019-03-22T22:15:10.780Z,7.70
2019-03-22T22:17:42.181Z,7.70
2019-03-22T22:20:13.802Z,7.70
2019-03-22T22:22:44.702Z,7.60
2019-03-22T22:25:15.577Z,7.70
2019-03-22T22:27:46.581Z,7.70
2019-03-22T22:30:17.454Z,7.70
2019-03-22T22:32:48.381Z,7.70
2019-03-22T22:35:20.528Z,7.60
2019-03-22T22:37:51.401Z,7.70
2019-03-22T22:40:22.277Z,7.70
2019-03-22T22:42:53.480Z,7.70
2019-03-22T22:45:24.365Z,7.70
2019-03-22T22:47:55.293Z,7.70
2019-03-22T22:50:26.173Z,7.70
2019-03-22T22:52:57.098Z,7.70
2019-03-22T22:55:27.981Z,7.80
2019-03-22T22:57:58.900Z,7.80
2019-03-22T23:00:29.821Z,7.80
2019-03-22T23:03:01.591Z,7.80
2019-03-22T23:05:32.474Z,7.80
2019-03-22T23:08:03.383Z,7.80
2019-03-22T23:10:34.258Z,7.80
2019-03-22T23:13:05.161Z,7.80
2019-03-22T23:15:36.046Z,7.90
2019-03-22T23:18:07.033Z,7.90
2019-03-22T23:20:37.924Z,7.90
2019-03-22T23:23:08.842Z,7.90
2019-03-22T23:25:39.721Z,7.90
2019-03-22T23:28:10.642Z,7.90
2019-03-22T23:30:41.513Z,7.90
2019-03-22T23:33:12.509Z,7.90
2019-03-22T23:35:43.438Z,7.90
2019-03-22T23:38:14.350Z,7.80
2019-03-22T23:40:45.240Z,7.80
2019-03-22T23:43:16.665Z,7.80
2019-03-22T23:45:47.633Z,7.80
2019-03-22T23:48:18.555Z,7.70
2019-03-22T23:50:49.523Z,7.70
2019-03-22T23:53:20.436Z,7.70
2019-03-22T23:55:51.329Z,7.70
2019-03-22T23:58:22.232Z,7.60
